Vicki Lynn — WDG2326 — position and weather

sailwx.info

Track history (hours):
 
Tides and Currents Weather Stations Pressure Air Temp Water Temp Dewpoint Dewpoint Depression Visibility Wind Speed Wind Dir Waves Ship Positions

Vicki Lynn

Owner: T K TOWING, INC, MORGAN CITY, LA. More information available from US FCC via Universal Licensing System and Coast Guard Vessel Documentation Center.

Last reported at 2018-Jan-11 04:54 UTC. Time now 2018-Jan-19 01:13 UTC.
Position N 29°34' W 090°32'.

Length 18 m; draft 2.2 m.

Type: Towing. MMSI: 367514520.

Date/timePositionNaut miles runAvg speedWind from/ knotsBaromVisibWave heightAir tempDewpointWater temp
2018-Jan-11 04:54N 29°34' W 090°32'2 5.8
2018-Jan-11 04:30N 29°34' W 090°35'3 5.4
2018-Jan-11 04:00N 29°35' W 090°38'3 5.8
2018-Jan-11 03:30N 29°36' W 090°41'2 3.5
2018-Jan-11 03:01N 29°36' W 090°43'2 4.6
2018-Jan-11 02:30N 29°34' W 090°44'3 5.3
2018-Jan-11 02:00N 29°32' W 090°47'3 6.1
2018-Jan-11 01:30N 29°32' W 090°50'3 6.0
2018-Jan-11 01:00N 29°33' W 090°54'  
2018-Jan-06 12:59N 29°38' W 091°04'5 2.5
2018-Jan-06 11:04N 29°37' W 090°59'1 2.8
2018-Jan-06 10:41N 29°36' W 090°58'1 2.9
2018-Jan-06 10:31N 29°36' W 090°58'2 2.8
2018-Jan-06 09:54N 29°34' W 090°57'1 2.7
2018-Jan-06 09:22N 29°34' W 090°55'1 2.9
2018-Jan-06 09:01N 29°33' W 090°54'1 3.0
2018-Jan-06 08:31N 29°32' W 090°53'1 2.8
2018-Jan-06 08:01N 29°32' W 090°51'1 3.0
2018-Jan-06 07:31N 29°32' W 090°50'2 3.0
2018-Jan-06 07:01N 29°32' W 090°48'1 3.0
2018-Jan-06 06:31N 29°32' W 090°46'1 2.9
2018-Jan-06 06:01N 29°33' W 090°45'1 2.7
2018-Jan-06 05:31N 29°34' W 090°44'1 1.8
2018-Jan-06 05:01N 29°34' W 090°43'2 3.0
2018-Jan-06 04:31N 29°32' W 090°42'1 1.4
2018-Jan-06 04:01N 29°33' W 090°42'2 4.9
2018-Jan-06 03:31N 29°30' W 090°43'6 0.2
2018-Jan-04 17:21N 29°24' W 090°44'3 8.8
2018-Jan-04 17:01N 29°27' W 090°43'4 8.6
2018-Jan-04 16:30N 29°32' W 090°42'3 5.1
2018-Jan-04 16:01N 29°34' W 090°43'4 7.2
2018-Jan-04 15:31N 29°32' W 090°46'7 8.1
2018-Jan-04 14:39N 29°33' W 090°54'1 8.2
2018-Jan-04 14:28N 29°34' W 090°56'  
Track history (hours):
 
Tides and Currents Weather Stations Pressure Air Temp Water Temp Dewpoint Dewpoint Depression Visibility Wind Speed Wind Dir Waves Ship Positions

Vicki Lynn

Owner: T K TOWING, INC, MORGAN CITY, LA. More information available from US FCC via Universal Licensing System and Coast Guard Vessel Documentation Center.

Last reported at 2018-Jan-11 04:54 UTC. Time now 2018-Jan-19 01:13 UTC.
Position N 29°34' W 090°32'.

Length 18 m; draft 2.2 m.

Type: Towing. MMSI: 367514520.

Date/timePositionNaut miles runAvg speedWind from/ knotsBaromVisibWave heightAir tempDewpointWater temp
2018-Jan-11 04:54N 29°34' W 090°32'2 5.8
2018-Jan-11 04:30N 29°34' W 090°35'3 5.4
2018-Jan-11 04:00N 29°35' W 090°38'3 5.8
2018-Jan-11 03:30N 29°36' W 090°41'2 3.5
2018-Jan-11 03:01N 29°36' W 090°43'2 4.6
2018-Jan-11 02:30N 29°34' W 090°44'3 5.3
2018-Jan-11 02:00N 29°32' W 090°47'3 6.1
2018-Jan-11 01:30N 29°32' W 090°50'3 6.0
2018-Jan-11 01:00N 29°33' W 090°54'  
2018-Jan-06 12:59N 29°38' W 091°04'5 2.5
2018-Jan-06 11:04N 29°37' W 090°59'1 2.8
2018-Jan-06 10:41N 29°36' W 090°58'1 2.9
2018-Jan-06 10:31N 29°36' W 090°58'2 2.8
2018-Jan-06 09:54N 29°34' W 090°57'1 2.7
2018-Jan-06 09:22N 29°34' W 090°55'1 2.9
2018-Jan-06 09:01N 29°33' W 090°54'1 3.0
2018-Jan-06 08:31N 29°32' W 090°53'1 2.8
2018-Jan-06 08:01N 29°32' W 090°51'1 3.0
2018-Jan-06 07:31N 29°32' W 090°50'2 3.0
2018-Jan-06 07:01N 29°32' W 090°48'1 3.0
2018-Jan-06 06:31N 29°32' W 090°46'1 2.9
2018-Jan-06 06:01N 29°33' W 090°45'1 2.7
2018-Jan-06 05:31N 29°34' W 090°44'1 1.8
2018-Jan-06 05:01N 29°34' W 090°43'2 3.0
2018-Jan-06 04:31N 29°32' W 090°42'1 1.4
2018-Jan-06 04:01N 29°33' W 090°42'2 4.9
2018-Jan-06 03:31N 29°30' W 090°43'6 0.2
2018-Jan-04 17:21N 29°24' W 090°44'3 8.8
2018-Jan-04 17:01N 29°27' W 090°43'4 8.6
2018-Jan-04 16:30N 29°32' W 090°42'3 5.1
2018-Jan-04 16:01N 29°34' W 090°43'4 7.2
2018-Jan-04 15:31N 29°32' W 090°46'7 8.1
2018-Jan-04 14:39N 29°33' W 090°54'1 8.2
2018-Jan-04 14:28N 29°34' W 090°56'  

Dump ship's entire track history